createdAt,value
2024-01-15T00:00:08.733Z,3.28
2024-01-15T00:02:38.402Z,3.36
2024-01-15T00:05:11.242Z,3.25
2024-01-15T00:07:40.869Z,3.30
2024-01-15T00:10:10.952Z,3.28
2024-01-15T00:12:40.656Z,3.20
2024-01-15T00:15:11.089Z,3.12
2024-01-15T00:17:40.786Z,3.13
2024-01-15T00:20:14.254Z,3.16
2024-01-15T00:22:43.889Z,3.16
2024-01-15T00:25:13.545Z,3.11
2024-01-15T00:27:43.326Z,3.06
2024-01-15T00:30:14.346Z,3.07
2024-01-15T00:32:44.160Z,3.14
2024-01-15T00:35:16.797Z,3.06
2024-01-15T00:37:46.690Z,3.09
2024-01-15T00:40:16.499Z,3.16
2024-01-15T00:42:46.274Z,3.18
2024-01-15T00:45:16.017Z,3.20
2024-01-15T00:47:45.846Z,3.17
2024-01-15T00:50:18.535Z,3.11
2024-01-15T00:52:48.158Z,3.13
2024-01-15T00:55:17.967Z,3.17
2024-01-15T00:57:47.844Z,3.30
2024-01-15T01:00:18.565Z,3.18
2024-01-15T01:02:48.221Z,3.23
2024-01-15T01:05:20.742Z,3.24
2024-01-15T01:07:50.408Z,3.15
2024-01-15T01:10:19.991Z,3.06
2024-01-15T01:12:49.668Z,3.18
2024-01-15T01:15:19.436Z,3.09
2024-01-15T01:17:49.252Z,3.18
2024-01-15T01:20:21.769Z,3.14
2024-01-15T01:22:51.484Z,3.23
2024-01-15T01:25:21.172Z,3.22
2024-01-15T01:27:50.833Z,3.11
2024-01-15T01:30:20.723Z,3.16
2024-01-15T01:32:50.443Z,3.23
2024-01-15T01:35:22.696Z,3.09
2024-01-15T01:37:52.343Z,3.15
2024-01-15T01:40:22.254Z,3.04
2024-01-15T01:42:52.093Z,3.11
2024-01-15T01:45:21.757Z,3.16
2024-01-15T01:47:51.693Z,3.14
2024-01-15T01:50:24.066Z,2.93
2024-01-15T01:52:54.764Z,3.01
2024-01-15T01:55:25.813Z,2.95
2024-01-15T01:57:55.502Z,2.96
2024-01-15T02:00:25.540Z,2.98
2024-01-15T02:02:55.200Z,3.00
2024-01-15T02:05:27.489Z,3.09
2024-01-15T02:07:57.243Z,3.07
2024-01-15T02:10:26.842Z,2.97
2024-01-15T02:12:56.471Z,3.01
2024-01-15T02:15:26.148Z,3.02
2024-01-15T02:18:06.842Z,2.87
2024-01-15T02:20:39.506Z,2.83
2024-01-15T02:23:15.404Z,2.93
2024-01-15T02:25:46.623Z,2.96
2024-01-15T02:28:18.088Z,2.87
2024-01-15T02:30:48.448Z,2.84
2024-01-15T02:33:18.285Z,2.78
2024-01-15T02:35:47.988Z,2.68
2024-01-15T02:38:20.762Z,2.72
2024-01-15T02:40:51.219Z,2.75
2024-01-15T02:43:20.862Z,2.75
2024-01-15T02:45:50.562Z,2.73
2024-01-15T02:48:20.318Z,2.80
2024-01-15T02:50:49.918Z,2.88
2024-01-15T02:53:22.077Z,2.89
2024-01-15T02:55:51.578Z,2.93
2024-01-15T02:58:21.098Z,2.92
2024-01-15T03:00:50.738Z,2.95
2024-01-15T03:03:20.449Z,2.94
2024-01-15T03:05:50.125Z,2.86
2024-01-15T03:08:24.035Z,2.88
2024-01-15T03:10:53.939Z,2.87
2024-01-15T03:13:23.425Z,2.96
2024-01-15T03:15:53.155Z,2.89
2024-01-15T03:18:22.817Z,2.88
2024-01-15T03:20:52.775Z,2.84
2024-01-15T03:23:24.987Z,2.88
2024-01-15T03:25:54.667Z,2.80
2024-01-15T03:28:24.198Z,2.80
2024-01-15T03:30:53.809Z,2.75
2024-01-15T03:33:23.504Z,2.78
2024-01-15T03:35:53.099Z,2.84
2024-01-15T03:38:27.856Z,2.82
2024-01-15T03:40:57.359Z,2.81
2024-01-15T03:43:27.213Z,2.95
2024-01-15T03:45:56.828Z,2.90
2024-01-15T03:48:26.584Z,2.99
2024-01-15T03:50:56.085Z,3.06
2024-01-15T03:53:28.238Z,3.08
2024-01-15T03:55:57.736Z,3.13
2024-01-15T03:58:27.279Z,3.12
2024-01-15T04:00:56.775Z,3.10
2024-01-15T04:03:26.458Z,3.08
2024-01-15T04:05:56.093Z,3.09
2024-01-15T04:08:28.264Z,2.90
2024-01-15T04:10:57.817Z,2.90
2024-01-15T04:13:27.269Z,3.07
2024-01-15T04:15:56.939Z,3.06
2024-01-15T04:18:27.169Z,3.07
2024-01-15T04:20:56.675Z,3.13
2024-01-15T04:23:28.901Z,3.16
2024-01-15T04:25:58.410Z,3.06
2024-01-15T04:28:28.008Z,3.18
2024-01-15T04:30:57.752Z,3.17
2024-01-15T04:33:27.416Z,3.09
2024-01-15T04:35:57.146Z,3.25
2024-01-15T04:38:29.305Z,3.02
2024-01-15T04:40:58.784Z,3.05
2024-01-15T04:43:28.416Z,3.12
2024-01-15T04:45:57.978Z,3.06
2024-01-15T04:48:27.679Z,3.13
2024-01-15T04:50:57.379Z,3.05
2024-01-15T04:53:29.454Z,3.10
2024-01-15T04:55:58.966Z,3.05
2024-01-15T04:58:28.993Z,3.09
2024-01-15T05:00:58.621Z,3.02
2024-01-15T05:03:28.422Z,3.02
2024-01-15T05:05:58.864Z,3.00
2024-01-15T05:08:31.031Z,3.04
2024-01-15T05:11:00.504Z,3.00
2024-01-15T05:13:29.964Z,3.16
2024-01-15T05:15:59.532Z,3.22
2024-01-15T05:18:29.384Z,3.02
2024-01-15T05:20:59.072Z,3.06
2024-01-15T05:23:31.122Z,3.04
2024-01-15T05:26:00.934Z,3.00
2024-01-15T05:28:30.736Z,2.97
2024-01-15T05:31:00.401Z,3.02
2024-01-15T05:33:30.183Z,2.99
2024-01-15T05:36:00.232Z,2.92
2024-01-15T05:38:32.447Z,3.07
2024-01-15T05:41:01.958Z,2.97
2024-01-15T05:43:31.651Z,3.03
2024-01-15T05:46:01.239Z,2.94
2024-01-15T05:48:30.933Z,2.96
2024-01-15T05:51:00.563Z,3.03
2024-01-15T05:53:32.602Z,2.99
2024-01-15T05:56:02.578Z,3.10
2024-01-15T05:58:32.096Z,3.03
2024-01-15T06:01:01.774Z,3.09
2024-01-15T06:03:31.413Z,3.12
2024-01-15T06:06:01.103Z,3.03
2024-01-15T06:08:33.187Z,3.19
2024-01-15T06:11:02.726Z,3.13
2024-01-15T06:13:32.257Z,3.12
2024-01-15T06:16:01.851Z,3.09
2024-01-15T06:18:31.432Z,3.06
2024-01-15T06:21:01.001Z,3.13
2024-01-15T06:23:33.157Z,2.99
2024-01-15T06:26:05.010Z,3.05
2024-01-15T06:28:34.507Z,3.10
2024-01-15T06:31:04.414Z,3.09
2024-01-15T06:33:34.088Z,3.14
2024-01-15T06:36:03.729Z,3.11
2024-01-15T06:38:35.877Z,3.10
2024-01-15T06:41:05.396Z,2.96
2024-01-15T06:43:35.493Z,3.12
2024-01-15T06:46:07.572Z,3.11
2024-01-15T06:48:39.207Z,3.14
2024-01-15T06:51:09.072Z,3.12
2024-01-15T06:53:41.176Z,3.13
2024-01-15T06:56:10.713Z,3.09
2024-01-15T06:58:41.504Z,3.06
2024-01-15T07:01:11.644Z,3.03
2024-01-15T07:03:41.702Z,3.05
2024-01-15T07:06:11.300Z,3.06
2024-01-15T07:08:43.824Z,3.12
2024-01-15T07:11:13.498Z,3.02
2024-01-15T07:13:43.013Z,2.99
2024-01-15T07:16:12.570Z,3.00
2024-01-15T07:18:42.246Z,3.01
2024-01-15T07:21:11.958Z,2.99
2024-01-15T07:23:44.096Z,3.01
2024-01-15T07:26:13.622Z,3.03
2024-01-15T07:28:43.129Z,3.03
2024-01-15T07:31:12.857Z,3.13
2024-01-15T07:33:42.946Z,3.00
2024-01-15T07:36:12.663Z,3.02
2024-01-15T07:38:44.895Z,2.97
2024-01-15T07:41:14.364Z,3.00
2024-01-15T07:43:43.910Z,3.12
2024-01-15T07:46:13.822Z,3.12
2024-01-15T07:48:43.468Z,3.10
2024-01-15T07:51:13.116Z,3.06
2024-01-15T07:53:45.203Z,3.06
2024-01-15T07:56:14.765Z,2.95
2024-01-15T07:58:44.311Z,2.95
2024-01-15T08:01:14.202Z,2.99
2024-01-15T08:03:44.038Z,3.11
2024-01-15T08:06:13.948Z,2.90
2024-01-15T08:08:46.292Z,2.99
2024-01-15T08:11:15.851Z,3.07
2024-01-15T08:13:45.354Z,2.93
2024-01-15T08:16:14.917Z,2.87
2024-01-15T08:18:45.821Z,2.91
2024-01-15T08:21:15.420Z,2.99
2024-01-15T08:23:47.517Z,2.94
2024-01-15T08:26:17.104Z,2.90
2024-01-15T08:28:46.596Z,2.88
2024-01-15T08:31:17.098Z,2.81
2024-01-15T08:33:47.388Z,2.94
2024-01-15T08:36:17.447Z,2.84
2024-01-15T08:38:49.660Z,2.82
2024-01-15T08:41:19.238Z,2.89
2024-01-15T08:43:48.908Z,2.84
2024-01-15T08:46:18.509Z,2.89
2024-01-15T08:48:48.079Z,2.84
2024-01-15T08:51:17.688Z,2.87
2024-01-15T08:53:49.795Z,2.79
2024-01-15T08:56:19.440Z,2.77
2024-01-15T08:58:49.898Z,2.81
2024-01-15T09:01:20.654Z,2.75
2024-01-15T09:03:50.268Z,2.87
2024-01-15T09:06:20.266Z,2.84
2024-01-15T09:08:52.378Z,2.84
2024-01-15T09:11:21.858Z,2.70
2024-01-15T09:13:53.171Z,2.82
2024-01-15T09:16:22.684Z,2.85
2024-01-15T09:18:52.334Z,2.87
2024-01-15T09:21:21.912Z,2.83
2024-01-15T09:23:54.167Z,2.86
2024-01-15T09:26:23.699Z,2.81
2024-01-15T09:28:53.534Z,2.83
2024-01-15T09:31:23.107Z,2.90
2024-01-15T09:33:57.367Z,2.83
2024-01-15T09:36:26.997Z,2.99
2024-01-15T09:38:59.112Z,2.82
2024-01-15T09:41:29.493Z,2.79
2024-01-15T09:43:58.995Z,2.85
2024-01-15T09:46:28.551Z,2.84
2024-01-15T09:48:58.213Z,2.80
2024-01-15T09:51:28.452Z,2.74
2024-01-15T09:54:01.405Z,2.88
2024-01-15T09:56:31.832Z,2.85
2024-01-15T09:59:01.329Z,2.97
2024-01-15T10:01:31.808Z,3.05
2024-01-15T10:04:02.478Z,3.07
2024-01-15T10:06:32.547Z,3.17
2024-01-15T10:09:06.113Z,2.99
2024-01-15T10:11:36.192Z,3.10
2024-01-15T10:14:05.690Z,3.03
2024-01-15T10:16:35.310Z,3.21
2024-01-15T10:19:05.021Z,3.18
2024-01-15T10:21:36.403Z,3.05
2024-01-15T10:24:09.124Z,3.13
2024-01-15T10:26:38.695Z,3.12
2024-01-15T10:29:08.277Z,3.07
2024-01-15T10:31:37.994Z,3.16
2024-01-15T10:34:17.152Z,2.89
2024-01-15T10:36:56.602Z,2.85
2024-01-15T10:39:28.974Z,2.96
2024-01-15T10:41:58.480Z,3.11
2024-01-15T10:44:28.045Z,2.94
2024-01-15T10:46:59.331Z,2.77
2024-01-15T10:49:32.899Z,2.80
2024-01-15T10:52:05.030Z,2.80
2024-01-15T10:54:39.325Z,2.93
2024-01-15T10:57:09.837Z,2.74
2024-01-15T10:59:40.520Z,2.88
2024-01-15T11:02:11.664Z,2.91
2024-01-15T11:04:41.592Z,2.86
2024-01-15T11:07:12.850Z,2.78
2024-01-15T11:09:45.148Z,2.72
2024-01-15T11:12:17.460Z,2.69
2024-01-15T11:14:50.811Z,2.70
2024-01-15T11:17:21.941Z,2.77
2024-01-15T11:19:54.655Z,2.79
2024-01-15T11:22:52.075Z,2.77
2024-01-15T11:25:24.581Z,2.75
2024-01-15T11:27:56.509Z,2.79
2024-01-15T11:30:29.468Z,2.70
2024-01-15T11:32:59.077Z,2.66
2024-01-15T11:35:54.406Z,2.73
2024-01-15T11:38:41.843Z,2.83
2024-01-15T11:41:20.115Z,2.91
2024-01-15T11:43:49.673Z,2.89
2024-01-15T11:46:22.479Z,2.95
2024-01-15T11:49:03.175Z,2.95
2024-01-15T11:51:30.281Z,2.87
2024-01-15T11:54:04.950Z,2.84
2024-01-15T11:56:37.156Z,2.84
2024-01-15T11:59:07.107Z,2.90
2024-01-15T12:01:37.884Z,2.87
2024-01-15T12:04:07.841Z,2.84
2024-01-15T12:06:37.584Z,2.85
2024-01-15T12:09:10.696Z,2.81
2024-01-15T12:11:50.880Z,2.67
2024-01-15T12:14:20.542Z,2.70
2024-01-15T12:16:50.069Z,2.62
2024-01-15T12:19:20.419Z,2.72
2024-01-15T12:21:50.293Z,2.80
2024-01-15T12:24:20.937Z,2.82
2024-01-15T12:26:53.352Z,2.80
2024-01-15T12:29:22.897Z,2.75
2024-01-15T12:31:53.090Z,2.64
2024-01-15T12:34:22.794Z,2.79
2024-01-15T12:36:52.364Z,2.76
2024-01-15T12:39:21.854Z,2.64
2024-01-15T12:41:54.179Z,2.62
2024-01-15T12:44:23.824Z,2.75
2024-01-15T12:46:53.736Z,2.68
2024-01-15T12:49:23.886Z,2.80
2024-01-15T12:51:56.754Z,2.94
2024-01-15T12:54:27.661Z,2.74
2024-01-15T12:56:59.781Z,2.76
2024-01-15T12:59:29.705Z,2.96
2024-01-15T13:01:59.300Z,2.73
2024-01-15T13:04:29.325Z,2.81
2024-01-15T13:06:59.062Z,2.85
2024-01-15T13:09:28.653Z,2.86
2024-01-15T13:12:00.799Z,2.87
2024-01-15T13:14:30.310Z,2.91
2024-01-15T13:17:00.069Z,2.78
2024-01-15T13:19:29.721Z,2.86
2024-01-15T13:22:01.395Z,2.99
2024-01-15T13:24:31.003Z,3.06
2024-01-15T13:27:03.213Z,2.94
2024-01-15T13:29:32.730Z,3.12
2024-01-15T13:32:02.734Z,3.28
2024-01-15T13:34:32.391Z,3.22
2024-01-15T13:37:01.988Z,3.35
2024-01-15T13:39:34.549Z,3.08
2024-01-15T13:42:07.403Z,3.37
2024-01-15T13:44:37.115Z,3.32
2024-01-15T13:47:07.289Z,3.19
2024-01-15T13:49:38.191Z,3.11
2024-01-15T13:52:08.268Z,3.20
2024-01-15T13:54:45.654Z,3.13
2024-01-15T13:57:24.191Z,3.23
2024-01-15T13:59:53.940Z,3.28
2024-01-15T14:02:25.164Z,3.20
2024-01-15T14:04:56.012Z,3.09
2024-01-15T14:07:25.482Z,3.20
2024-01-15T14:09:55.062Z,3.25
2024-01-15T14:12:27.988Z,3.22
2024-01-15T14:14:57.533Z,3.11
2024-01-15T14:17:27.080Z,3.09
2024-01-15T14:19:57.440Z,3.08
2024-01-15T14:22:27.254Z,3.16
2024-01-15T14:24:56.771Z,3.05
2024-01-15T14:27:29.025Z,2.97
2024-01-15T14:29:58.871Z,3.20
2024-01-15T14:32:28.633Z,3.25
2024-01-15T14:34:58.356Z,3.05
2024-01-15T14:37:27.928Z,2.79
2024-01-15T14:39:57.432Z,3.20
2024-01-15T14:42:29.882Z,3.10
2024-01-15T14:45:00.109Z,3.23
2024-01-15T14:47:29.647Z,2.95
2024-01-15T14:50:00.579Z,3.24
2024-01-15T14:52:30.175Z,3.05
2024-01-15T14:54:59.766Z,2.97
2024-01-15T14:57:32.118Z,2.86
2024-01-15T15:00:01.637Z,2.93
2024-01-15T15:02:33.034Z,3.04
2024-01-15T15:05:03.116Z,2.92
2024-01-15T15:07:32.789Z,2.99
2024-01-15T15:10:02.460Z,2.97
2024-01-15T15:12:34.785Z,3.01
2024-01-15T15:15:09.096Z,3.02
2024-01-15T15:17:40.764Z,2.94
2024-01-15T15:20:11.721Z,3.09
2024-01-15T15:22:41.436Z,2.86
2024-01-15T15:25:13.381Z,2.85
2024-01-15T15:27:45.543Z,2.94
2024-01-15T15:30:15.652Z,2.84
2024-01-15T15:32:45.312Z,3.15
2024-01-15T15:35:15.146Z,3.21
2024-01-15T15:37:44.906Z,3.16
2024-01-15T15:40:14.733Z,3.02
2024-01-15T15:42:46.930Z,3.05
2024-01-15T15:45:16.895Z,3.19
2024-01-15T15:47:43.849Z,3.15
2024-01-15T15:50:14.295Z,3.03
2024-01-15T15:52:43.943Z,3.11
2024-01-15T15:55:13.457Z,2.99
2024-01-15T15:57:42.996Z,2.93
2024-01-15T16:00:16.238Z,2.95
2024-01-15T16:02:45.872Z,2.93
2024-01-15T16:05:15.554Z,2.92
2024-01-15T16:07:45.175Z,3.03
2024-01-15T16:10:15.349Z,3.12
2024-01-15T16:12:46.310Z,3.00
2024-01-15T16:15:22.141Z,3.01
2024-01-15T16:23:17.654Z,2.95
2024-01-15T16:23:32.362Z,2.75
2024-01-15T16:24:06.011Z,2.86
2024-01-15T16:26:22.298Z,2.85
2024-01-15T16:28:52.190Z,2.84
2024-01-15T16:31:24.852Z,2.66
2024-01-15T16:33:58.350Z,2.61
2024-01-15T16:36:32.802Z,2.82
2024-01-15T16:39:02.744Z,2.75
2024-01-15T16:41:32.576Z,2.89
2024-01-15T16:44:02.125Z,2.92
2024-01-15T16:46:34.259Z,2.86
2024-01-15T16:49:09.393Z,2.73
2024-01-15T16:51:38.988Z,2.59
2024-01-15T16:54:08.942Z,2.77
2024-01-15T16:56:38.472Z,2.72
2024-01-15T16:59:08.350Z,2.51
2024-01-15T17:01:40.790Z,2.73
2024-01-15T17:04:10.301Z,2.70
2024-01-15T17:06:39.779Z,2.60
2024-01-15T17:09:09.384Z,2.64
2024-01-15T17:11:38.964Z,2.76
2024-01-15T17:14:08.551Z,2.73
2024-01-15T17:16:40.651Z,2.66
2024-01-15T17:19:11.412Z,2.55
2024-01-15T17:21:40.901Z,2.66
2024-01-15T17:24:10.561Z,2.76
2024-01-15T17:26:40.104Z,2.50
2024-01-15T17:29:09.738Z,2.76
2024-01-15T17:31:41.848Z,2.91
2024-01-15T17:34:11.822Z,2.84
2024-01-15T17:36:41.494Z,2.55
2024-01-15T17:39:11.031Z,2.54
2024-01-15T17:41:40.583Z,2.70
2024-01-15T17:44:10.079Z,2.77
2024-01-15T17:46:43.444Z,2.77
2024-01-15T17:49:13.247Z,2.88
2024-01-15T17:51:43.089Z,2.95
2024-01-15T17:54:12.704Z,2.82
2024-01-15T17:56:42.593Z,2.79
2024-01-15T17:59:12.236Z,2.91
2024-01-15T18:01:47.781Z,2.85
2024-01-15T18:04:17.577Z,3.14
2024-01-15T18:06:48.510Z,2.91
2024-01-15T18:09:20.548Z,2.96
2024-01-15T18:11:50.335Z,2.95
2024-01-15T18:14:19.868Z,3.03
2024-01-15T18:16:52.363Z,2.81
2024-01-15T18:19:21.868Z,3.01
2024-01-15T18:21:51.481Z,2.99
2024-01-15T18:24:20.982Z,2.97
2024-01-15T18:26:54.048Z,2.84
2024-01-15T18:29:25.079Z,2.79
2024-01-15T18:31:57.308Z,2.77
2024-01-15T18:34:27.108Z,2.74
2024-01-15T18:36:56.622Z,2.82
2024-01-15T18:39:26.103Z,2.71
2024-01-15T18:41:55.686Z,2.58
2024-01-15T18:44:25.651Z,2.57
2024-01-15T18:46:58.895Z,2.52
2024-01-15T18:49:28.543Z,2.57
2024-01-15T18:51:58.129Z,2.63
2024-01-15T18:54:28.733Z,2.51
2024-01-15T18:56:58.262Z,2.74
2024-01-15T18:59:27.919Z,2.58
2024-01-15T19:02:00.088Z,2.63
2024-01-15T19:04:29.694Z,2.51
2024-01-15T19:06:59.180Z,2.50
2024-01-15T19:09:29.207Z,2.61
2024-01-15T19:11:58.772Z,2.52
2024-01-15T19:14:28.483Z,2.49
2024-01-15T19:17:02.916Z,2.39
2024-01-15T19:19:36.134Z,2.44
2024-01-15T19:22:05.775Z,2.36
2024-01-15T19:24:36.206Z,2.40
2024-01-15T19:27:05.814Z,2.54
2024-01-15T19:29:36.199Z,2.44
2024-01-15T19:32:09.025Z,2.42
2024-01-15T19:34:39.198Z,2.40
2024-01-15T19:37:08.966Z,2.65
2024-01-15T19:39:38.491Z,2.31
2024-01-15T19:42:08.653Z,2.44
2024-01-15T19:44:38.822Z,2.41
2024-01-15T19:47:11.153Z,2.41
2024-01-15T19:49:44.667Z,2.47
2024-01-15T19:52:14.236Z,2.39
2024-01-15T19:54:44.102Z,2.46
2024-01-15T19:57:15.379Z,2.50
2024-01-15T19:59:44.974Z,2.46
2024-01-15T20:02:17.486Z,2.35
2024-01-15T20:04:47.046Z,2.41
2024-01-15T20:07:16.722Z,2.22
2024-01-15T20:09:46.265Z,2.25
2024-01-15T20:12:15.768Z,2.23
2024-01-15T20:14:45.251Z,2.30
2024-01-15T20:17:17.435Z,2.34
2024-01-15T20:19:47.051Z,2.33
2024-01-15T20:22:16.729Z,2.19
2024-01-15T20:24:46.216Z,2.22
2024-01-15T20:27:17.527Z,2.34
2024-01-15T20:29:47.181Z,2.36
2024-01-15T20:32:19.991Z,2.35
2024-01-15T20:34:49.539Z,2.28
2024-01-15T20:37:19.568Z,2.27
2024-01-15T20:39:49.254Z,2.37
2024-01-15T20:42:18.740Z,2.40
2024-01-15T20:44:50.587Z,2.39
2024-01-15T20:47:23.181Z,2.45
2024-01-15T20:49:52.757Z,2.43
2024-01-15T20:52:25.427Z,2.39
2024-01-15T20:54:55.307Z,2.24
2024-01-15T20:57:24.970Z,2.22
2024-01-15T20:59:54.639Z,2.26
2024-01-15T21:02:26.973Z,2.36
2024-01-15T21:04:56.622Z,2.30
2024-01-15T21:07:27.324Z,2.26
2024-01-15T21:09:58.167Z,2.33
2024-01-15T21:12:27.730Z,2.42
2024-01-15T21:14:57.215Z,2.42
2024-01-15T21:17:29.404Z,2.49
2024-01-15T21:19:59.557Z,2.43
2024-01-15T21:22:29.968Z,2.61
2024-01-15T21:24:59.544Z,2.40
2024-01-15T21:27:29.087Z,2.52
2024-01-15T21:29:58.597Z,2.49
2024-01-15T21:32:30.831Z,2.49
2024-01-15T21:35:00.581Z,2.59
2024-01-15T21:37:30.772Z,2.73
2024-01-15T21:40:00.345Z,2.52
2024-01-15T21:42:29.863Z,2.49
2024-01-15T21:44:59.356Z,2.51
2024-01-15T21:47:31.722Z,2.45
2024-01-15T21:50:01.412Z,2.63
2024-01-15T21:52:30.940Z,2.66
2024-01-15T21:55:00.445Z,2.73
2024-01-15T21:57:29.918Z,2.67
2024-01-15T22:00:01.684Z,2.63
2024-01-15T22:02:37.149Z,2.50
2024-01-15T22:05:07.972Z,2.74
2024-01-15T22:07:37.531Z,2.61
2024-01-15T22:10:08.671Z,2.50
2024-01-15T22:12:38.406Z,2.62
2024-01-15T22:15:09.506Z,2.67
2024-01-15T22:17:41.745Z,2.54
2024-01-15T22:20:13.625Z,2.54
2024-01-15T22:22:43.301Z,2.70
2024-01-15T22:25:12.896Z,2.65
2024-01-15T22:27:42.606Z,2.55
2024-01-15T22:30:13.148Z,2.69
2024-01-15T22:32:45.395Z,2.64
2024-01-15T22:35:15.121Z,2.72
2024-01-15T22:37:44.690Z,2.68
2024-01-15T22:40:17.003Z,2.67
2024-01-15T22:42:46.505Z,2.75
2024-01-15T22:45:17.474Z,2.65
2024-01-15T22:47:50.135Z,2.53
2024-01-15T22:50:20.376Z,2.41
2024-01-15T22:52:49.911Z,2.41
2024-01-15T22:55:19.497Z,2.51
2024-01-15T22:57:49.058Z,2.47
2024-01-15T23:00:20.177Z,2.57
2024-01-15T23:02:53.259Z,2.28
2024-01-15T23:05:22.925Z,2.12
2024-01-15T23:07:52.970Z,2.23
2024-01-15T23:10:22.718Z,1.84
2024-01-15T23:12:52.176Z,2.13
2024-01-15T23:15:21.926Z,2.26
2024-01-15T23:17:54.499Z,2.09
2024-01-15T23:20:24.266Z,1.94
2024-01-15T23:22:53.766Z,1.81
2024-01-15T23:25:23.246Z,1.97
2024-01-15T23:27:52.798Z,1.90
2024-01-15T23:30:22.297Z,1.94
2024-01-15T23:32:54.559Z,1.87
2024-01-15T23:35:24.474Z,1.97
2024-01-15T23:37:53.974Z,1.97
2024-01-15T23:40:23.465Z,2.05
2024-01-15T23:42:53.006Z,2.00
2024-01-15T23:45:22.617Z,2.18
2024-01-15T23:47:54.956Z,2.04
2024-01-15T23:50:25.215Z,1.91
2024-01-15T23:52:54.750Z,2.36
2024-01-15T23:55:24.230Z,2.43
2024-01-15T23:57:54.165Z,2.10
